Time;durP1;ratioP1;P1;durP2;ratioP2;P2;SDS_P1;SDS_P2;PMS_P1;PMS_P2;Temp;Humidity;BMP_temperature;BMP_pressure;BME280_temperature;BME280_humidity;BME280_pressure;Samples;Min_cycle;Max_cycle;Signal;HPM_P1;HPM_P2
2021/03/07 00:01:04;;;;;;;0.20;0.20;;;;;;;2.79;67.79;100354.53;5096578;27;20207;-65
2021/03/07 00:03:32;;;;;;;0.37;0.37;;;;;;;2.87;67.66;100350.69;5095925;28;20201;-67
2021/03/07 00:05:59;;;;;;;0.27;0.27;;;;;;;2.86;67.23;100371.03;5097602;28;20213;-66
2021/03/07 00:08:27;;;;;;;0.33;0.30;;;;;;;2.86;67.12;100371.03;5098087;28;20251;-66
2021/03/07 00:10:54;;;;;;;0.20;0.20;;;;;;;2.76;65.54;100364.41;5094739;28;20199;-66
2021/03/07 00:13:21;;;;;;;0.30;0.30;;;;;;;2.77;66.81;100358.19;5097114;28;20208;-66
2021/03/07 00:15:48;;;;;;;0.40;0.17;;;;;;;2.84;67.40;100356.13;5096646;28;20210;-66
2021/03/07 00:18:16;;;;;;;0.77;0.20;;;;;;;2.86;67.66;100363.09;5095794;28;20670;-66
2021/03/07 00:20:44;;;;;;;0.77;0.40;;;;;;;2.89;68.11;100360.28;5097377;27;20207;-66
2021/03/07 00:23:11;;;;;;;0.20;0.20;;;;;;;2.88;68.79;100366.53;5097558;28;20209;-66
2021/03/07 00:25:39;;;;;;;1.50;0.50;;;;;;;2.89;68.36;100347.03;5095356;27;20259;-66
2021/03/07 00:28:06;;;;;;;0.60;0.27;;;;;;;2.84;68.72;100364.06;5095817;28;20220;-67
2021/03/07 00:30:33;;;;;;;3.80;0.50;;;;;;;2.85;68.61;100371.09;5096943;28;20215;-67
2021/03/07 00:33:00;;;;;;;0.27;0.27;;;;;;;2.28;68.55;100288.66;5098826;28;20195;-65
2021/03/07 00:35:28;;;;;;;0.20;0.20;;;;;;;2.78;68.25;100379.31;5095106;28;20291;-66
2021/03/07 00:37:56;;;;;;;2.57;0.30;;;;;;;2.93;68.65;100395.50;5096051;27;20249;-66
2021/03/07 00:40:23;;;;;;;0.30;0.30;;;;;;;3.00;68.58;100399.59;5094031;28;20215;-66
2021/03/07 00:42:50;;;;;;;0.37;0.37;;;;;;;2.92;67.82;100401.72;5102065;27;20221;-66
2021/03/07 00:45:19;;;;;;;12.90;6.43;;;;;;;2.94;68.05;100394.56;5098233;28;20566;-66
2021/03/07 00:47:46;;;;;;;9.43;3.07;;;;;;;2.90;67.45;100390.31;5081437;28;20696;-66
2021/03/07 00:50:16;;;;;;;0.50;0.50;;;;;;;2.91;67.51;100381.44;5094681;28;20238;-66
2021/03/07 00:52:44;;;;;;;0.40;0.40;;;;;;;2.81;65.29;100394.22;5100824;28;20192;-66
2021/03/07 00:55:12;;;;;;;0.37;0.37;;;;;;;2.88;66.50;100395.69;5093720;28;20628;-66
2021/03/07 00:57:39;;;;;;;1.93;0.33;;;;;;;2.63;66.29;100348.13;5097306;28;20596;-66
2021/03/07 01:00:10;;;;;;;0.77;0.50;;;;;;;2.98;67.25;100391.72;5092460;28;20245;-65
2021/03/07 01:02:37;;;;;;;1.70;0.53;;;;;;;3.01;67.12;100393.38;5078087;28;20214;-66
2021/03/07 01:05:06;;;;;;;0.30;0.30;;;;;;;2.98;66.39;100396.16;5098288;28;20219;-65
2021/03/07 01:07:33;;;;;;;1.03;1.00;;;;;;;3.00;64.99;100394.31;5096810;28;20243;-65
2021/03/07 01:10:01;;;;;;;0.20;0.20;;;;;;;2.84;65.35;100394.09;5092778;28;20627;-66
2021/03/07 01:12:29;;;;;;;0.23;0.23;;;;;;;2.91;65.00;100384.09;5089040;28;20203;-66
2021/03/07 01:14:56;;;;;;;0.70;0.30;;;;;;;2.86;63.84;100391.38;5094218;28;20262;-66
2021/03/07 01:17:24;;;;;;;0.40;0.40;;;;;;;2.85;64.02;100381.72;5092280;28;20280;-66
2021/03/07 01:19:51;;;;;;;1.50;0.50;;;;;;;2.83;63.02;100380.91;5092310;28;20204;-66
2021/03/07 01:22:18;;;;;;;2.20;0.30;;;;;;;2.69;60.21;100371.72;5099254;27;20286;-66
2021/03/07 01:24:45;;;;;;;0.53;0.53;;;;;;;2.67;60.19;100376.22;5092559;28;20204;-66
2021/03/07 01:27:12;;;;;;;0.60;0.60;;;;;;;2.64;59.93;100363.09;5095727;27;20326;-66
2021/03/07 01:29:41;;;;;;;2.53;0.50;;;;;;;2.70;59.89;100365.50;5095620;28;20696;-66
2021/03/07 01:32:08;;;;;;;1.70;0.40;;;;;;;2.76;62.08;100375.00;5093582;27;20206;-66
2021/03/07 01:34:35;;;;;;;0.20;0.20;;;;;;;2.74;61.31;100374.19;5092294;28;20741;-66
2021/03/07 01:37:02;;;;;;;0.30;0.30;;;;;;;2.82;62.99;100389.78;5100273;27;20570;-66
2021/03/07 01:39:30;;;;;;;0.37;0.37;;;;;;;2.80;64.30;100382.75;5099956;28;20293;-66
2021/03/07 01:41:57;;;;;;;0.63;0.30;;;;;;;2.75;64.08;100392.66;5096139;27;20559;-66
2021/03/07 01:44:24;;;;;;;0.20;0.20;;;;;;;2.85;65.96;100379.06;5094075;28;20282;-68
2021/03/07 01:46:52;;;;;;;0.40;0.40;;;;;;;2.79;64.07;100369.56;5093902;28;20198;-68
2021/03/07 01:49:20;;;;;;;5.00;0.30;;;;;;;2.78;64.98;100360.75;5094662;27;20195;-68
2021/03/07 01:51:47;;;;;;;1.30;0.83;;;;;;;2.86;66.24;100370.16;5097294;28;20196;-69
2021/03/07 01:54:14;;;;;;;0.20;0.20;;;;;;;2.83;65.37;100368.50;5097779;28;20233;-68
2021/03/07 01:56:41;;;;;;;2.33;0.40;;;;;;;2.79;62.97;100359.84;5095930;28;20206;-68
2021/03/07 01:59:10;;;;;;;0.93;0.30;;;;;;;2.82;65.07;100360.63;5093564;28;20212;-68
2021/03/07 02:01:37;;;;;;;0.20;0.20;;;;;;;2.83;65.76;100349.09;5093495;27;20223;-68
2021/03/07 02:04:06;;;;;;;0.50;0.50;;;;;;;2.82;66.62;100337.63;5092399;28;20193;-69
2021/03/07 02:06:33;;;;;;;0.30;0.20;;;;;;;2.84;67.03;100350.81;5094581;27;20243;-69
2021/03/07 02:09:01;;;;;;;0.40;0.23;;;;;;;2.83;67.18;100357.06;5095255;27;20736;-68
2021/03/07 02:11:28;;;;;;;1.43;0.40;;;;;;;2.84;66.71;100356.13;5097921;28;20228;-68
2021/03/07 02:13:57;;;;;;;0.13;0.13;;;;;;;2.80;66.16;100353.59;5094783;28;20617;-68
2021/03/07 02:16:25;;;;;;;5.23;1.00;;;;;;;2.75;62.37;100354.69;5091418;28;20281;-68
2021/03/07 02:18:54;;;;;;;0.40;0.40;;;;;;;2.80;66.60;100356.25;5094021;28;20199;-68
2021/03/07 02:21:25;;;;;;;0.43;0.43;;;;;;;2.76;66.66;100352.00;5097107;28;20208;-66
2021/03/07 02:24:01;;;;;;;0.10;0.10;;;;;;;2.79;66.64;100348.38;5077441;28;20206;-66
2021/03/07 02:26:28;;;;;;;0.37;0.30;;;;;;;2.80;67.02;100358.91;5088522;28;20547;-66
2021/03/07 02:28:56;;;;;;;0.30;0.30;;;;;;;2.78;66.86;100354.59;5094719;28;20230;-66
2021/03/07 02:31:26;;;;;;;3.40;0.20;;;;;;;2.68;63.74;100342.63;5091269;28;20222;-68
2021/03/07 02:34:00;;;;;;;97.07;36.93;;;;;;;2.72;65.06;100352.19;5095001;28;20644;-68
2021/03/07 02:36:31;;;;;;;4.23;2.20;;;;;;;2.75;66.08;100357.34;5092702;28;20307;-68
2021/03/07 02:39:01;;;;;;;0.93;0.93;;;;;;;2.62;66.06;100341.09;5075925;28;20283;-68
2021/03/07 02:41:31;;;;;;;10.23;7.07;;;;;;;2.80;66.49;100356.25;5093990;28;20188;-69
2021/03/07 02:44:00;;;;;;;1.60;0.93;;;;;;;2.85;65.98;100357.84;5091422;28;20674;-69
2021/03/07 02:46:30;;;;;;;0.57;0.50;;;;;;;2.86;65.95;100359.56;5103434;28;20709;-68
2021/03/07 02:48:59;;;;;;;0.70;0.70;;;;;;;2.89;65.83;100362.94;5108572;28;20257;-69
2021/03/07 02:51:29;;;;;;;0.33;0.33;;;;;;;2.90;65.34;100361.16;5108053;27;20211;-69
2021/03/07 02:53:59;;;;;;;0.30;0.30;;;;;;;2.84;65.09;100366.72;5109708;28;20287;-69
2021/03/07 02:56:29;;;;;;;0.30;0.30;;;;;;;2.66;65.59;100332.09;5107020;28;20310;-67
2021/03/07 02:59:01;;;;;;;0.43;0.30;;;;;;;2.76;64.47;100353.81;5107331;28;20561;-66
2021/03/07 03:01:29;;;;;;;2.17;0.17;;;;;;;2.76;64.74;100359.97;5109972;28;20205;-66
2021/03/07 03:03:58;;;;;;;0.53;0.50;;;;;;;2.72;64.31;100352.19;5108484;28;20203;-66
2021/03/07 03:06:25;;;;;;;0.27;0.27;;;;;;;2.73;65.38;100353.91;5107895;28;20201;-66
2021/03/07 03:08:54;;;;;;;0.33;0.33;;;;;;;2.73;63.86;100349.47;5108770;28;20215;-66
2021/03/07 03:11:24;;;;;;;0.23;0.23;;;;;;;2.62;62.37;100356.16;5108867;28;20286;-67
2021/03/07 03:13:53;;;;;;;0.27;0.27;;;;;;;2.65;63.14;100346.28;5091996;28;20287;-66
2021/03/07 03:16:24;;;;;;;0.10;0.10;;;;;;;2.56;62.48;100351.97;5092461;28;20291;-67
2021/03/07 03:18:52;;;;;;;0.20;0.20;;;;;;;2.72;64.58;100352.19;5100222;28;20658;-66
2021/03/07 03:21:19;;;;;;;0.50;0.30;;;;;;;2.67;63.94;100359.47;5102591;28;20255;-65
2021/03/07 03:23:47;;;;;;;0.13;0.13;;;;;;;2.68;64.69;100359.41;5101493;28;20200;-65
2021/03/07 03:26:17;;;;;;;0.30;0.30;;;;;;;2.62;62.91;100358.81;5099456;28;20246;-65
2021/03/07 03:28:45;;;;;;;0.57;0.50;;;;;;;2.55;61.33;100350.25;5102570;28;20223;-66
2021/03/07 03:31:14;;;;;;;0.10;0.10;;;;;;;2.46;62.33;100351.50;5102204;28;20683;-66
2021/03/07 03:33:41;;;;;;;0.20;0.20;;;;;;;2.44;63.81;100363.91;5090151;28;20508;-67
2021/03/07 03:36:09;;;;;;;1.50;0.20;;;;;;;2.32;57.89;100363.56;5099575;28;20673;-66
2021/03/07 03:38:39;;;;;;;0.30;0.30;;;;;;;2.32;63.04;100363.56;5090559;28;20213;-66
2021/03/07 03:41:09;;;;;;;1.70;0.47;;;;;;;2.11;61.34;100339.63;5099339;28;20206;-66
2021/03/07 03:43:55;;;;;;;0.13;0.13;;;;;;;2.23;63.65;100351.56;5090536;28;20191;-66
2021/03/07 03:46:25;;;;;;;0.30;0.20;;;;;;;1.95;62.60;100305.91;5101590;28;20274;-67
2021/03/07 03:48:55;;;;;;;1.47;0.30;;;;;;;2.20;64.36;100346.38;5090093;28;20239;-66
2021/03/07 03:51:25;;;;;;;0.30;0.30;;;;;;;2.09;62.95;100346.78;5102904;28;20554;-67
2021/03/07 03:53:53;;;;;;;0.50;0.30;;;;;;;2.04;59.31;100343.47;5100002;28;20561;-66
2021/03/07 03:56:24;;;;;;;0.53;0.23;;;;;;;2.00;63.08;100346.28;5102657;28;20293;-67
2021/03/07 03:58:52;;;;;;;1.10;0.40;;;;;;;1.95;63.46;100327.94;5106210;28;20278;-66
2021/03/07 04:01:20;;;;;;;1.63;0.33;;;;;;;1.67;62.72;100300.81;5096447;28;20218;-66
2021/03/07 04:03:51;;;;;;;2.57;0.40;;;;;;;1.65;62.65;100294.72;5095003;28;20203;-66
2021/03/07 04:06:22;;;;;;;0.30;0.30;;;;;;;1.86;64.17;100330.97;5099476;28;20286;-66
2021/03/07 04:08:51;;;;;;;0.20;0.20;;;;;;;1.75;64.06;100309.31;5089010;28;20227;-66
2021/03/07 04:11:19;;;;;;;0.10;0.10;;;;;;;1.81;64.34;100317.88;5094246;28;20570;-67
2021/03/07 04:13:46;;;;;;;0.20;0.20;;;;;;;1.75;65.19;100325.19;5105571;28;20676;-67
2021/03/07 04:16:15;;;;;;;0.50;0.37;;;;;;;1.72;64.72;100320.03;5088392;28;20207;-67
2021/03/07 04:18:44;;;;;;;0.10;0.10;;;;;;;1.69;65.02;100323.66;5089229;28;20195;-66
2021/03/07 04:21:13;;;;;;;3.40;2.07;;;;;;;1.65;64.83;100327.34;5092643;28;20208;-66
2021/03/07 04:23:40;;;;;;;0.83;0.70;;;;;;;1.69;65.12;100328.09;5100913;28;20290;-67
2021/03/07 04:26:07;;;;;;;0.57;0.30;;;;;;;1.67;66.88;100319.34;5094420;28;20239;-66
2021/03/07 04:28:35;;;;;;;1.03;0.53;;;;;;;1.63;64.36;100320.38;5102970;28;20227;-67
2021/03/07 04:31:02;;;;;;;6.03;0.60;;;;;;;1.66;65.22;100317.63;5106908;28;20278;-67
2021/03/07 04:33:30;;;;;;;1.37;1.20;;;;;;;1.69;65.90;100307.78;5110519;28;20208;-67
2021/03/07 04:35:58;;;;;;;0.67;0.30;;;;;;;1.70;65.20;100303.34;5111196;27;20199;-67
2021/03/07 04:38:26;;;;;;;0.10;0.10;;;;;;;1.63;64.91;100304.50;5111248;28;20203;-68
2021/03/07 04:40:54;;;;;;;0.53;0.30;;;;;;;1.61;65.24;100301.91;5113769;28;20285;-67
2021/03/07 04:43:21;;;;;;;0.40;0.40;;;;;;;1.54;64.32;100289.84;5111143;27;20645;-67
2021/03/07 04:45:48;;;;;;;0.10;0.10;;;;;;;1.46;63.59;100289.25;5111242;28;20199;-66
2021/03/07 04:48:16;;;;;;;0.93;0.57;;;;;;;1.52;64.10;100311.06;5109968;28;20233;-67
2021/03/07 04:50:44;;;;;;;0.53;0.30;;;;;;;1.47;63.95;100302.44;5095972;28;20213;-66
2021/03/07 04:53:11;;;;;;;0.13;0.13;;;;;;;1.53;65.20;100304.88;5104497;28;20197;-65
2021/03/07 04:55:39;;;;;;;1.57;0.70;;;;;;;1.45;63.95;100301.63;5106176;27;20199;-69
2021/03/07 04:58:06;;;;;;;0.40;0.40;;;;;;;1.45;61.89;100306.91;5103406;27;20713;-68
2021/03/07 05:00:34;;;;;;;1.60;0.40;;;;;;;1.42;62.09;100299.09;5112224;27;20293;-65
2021/03/07 05:03:01;;;;;;;4.10;0.30;;;;;;;1.37;63.02;100293.13;5110847;28;20281;-65
2021/03/07 05:05:28;;;;;;;0.43;0.20;;;;;;;1.26;63.77;100273.28;5113156;28;20202;-65
2021/03/07 05:07:55;;;;;;;0.40;0.40;;;;;;;1.39;63.98;100301.88;5112274;28;20314;-65
2021/03/07 05:10:22;;;;;;;2.00;0.90;;;;;;;1.42;64.93;100290.31;5111176;27;20541;-65
2021/03/07 05:12:50;;;;;;;0.93;0.50;;;;;;;1.39;65.58;100279.84;5106861;27;20206;-65
2021/03/07 05:15:17;;;;;;;1.33;0.50;;;;;;;1.39;64.88;100279.84;5106030;27;20198;-65
2021/03/07 05:17:45;;;;;;;0.20;0.20;;;;;;;1.43;65.27;100284.09;5088294;27;20251;-65
2021/03/07 05:20:14;;;;;;;1.80;0.20;;;;;;;1.37;65.31;100287.84;5106132;27;20201;-65
2021/03/07 05:22:41;;;;;;;0.13;0.13;;;;;;;1.40;65.77;100290.34;5108451;27;20549;-65
2021/03/07 05:25:10;;;;;;;0.40;0.30;;;;;;;1.31;65.20;100287.22;5105911;27;20603;-65
2021/03/07 05:27:39;;;;;;;1.13;0.20;;;;;;;1.27;63.68;100290.88;5101290;27;20320;-65
2021/03/07 05:30:08;;;;;;;0.53;0.27;;;;;;;1.31;65.56;100287.22;5107164;27;20575;-64
2021/03/07 05:32:35;;;;;;;0.20;0.20;;;;;;;1.28;64.96;100282.91;5087651;28;20252;-64
2021/03/07 05:35:03;;;;;;;3.23;0.53;;;;;;;1.23;64.49;100284.84;5110920;28;20257;-65
2021/03/07 05:37:30;;;;;;;11.03;0.50;;;;;;;1.22;65.17;100281.34;5110259;27;20207;-64
2021/03/07 05:39:59;;;;;;;0.23;0.23;;;;;;;1.15;60.73;100281.59;5109954;28;20723;-65
2021/03/07 05:42:28;;;;;;;0.30;0.20;;;;;;;1.16;64.52;100276.25;5110394;27;20541;-64
2021/03/07 05:44:56;;;;;;;0.20;0.20;;;;;;;1.18;64.33;100285.00;5109836;27;20210;-64
2021/03/07 05:47:25;;;;;;;0.23;0.23;;;;;;;1.21;65.17;100281.38;5110152;28;20197;-64
2021/03/07 05:49:52;;;;;;;2.30;0.30;;;;;;;1.22;64.32;100278.69;5111350;28;20201;-65
2021/03/07 05:52:22;;;;;;;0.30;0.30;;;;;;;1.27;64.95;100267.09;5109192;28;20234;-65
2021/03/07 05:54:51;;;;;;;0.20;0.20;;;;;;;1.30;65.48;100259.91;5111967;28;20282;-68
2021/03/07 05:57:21;;;;;;;2.33;0.27;;;;;;;1.33;61.37;100264.22;5110505;28;20681;-69
2021/03/07 05:59:48;;;;;;;0.50;0.23;;;;;;;1.43;64.20;100263.78;5111577;28;20193;-69
2021/03/07 06:02:16;;;;;;;0.23;0.13;;;;;;;1.47;62.73;100264.53;5110082;27;20194;-68
2021/03/07 06:04:52;;;;;;;1.40;0.30;;;;;;;1.31;62.56;100237.81;5108682;27;20305;-69
2021/03/07 06:07:35;;;;;;;3.27;2.97;;;;;;;1.59;62.64;100273.81;5103017;28;20207;-69
2021/03/07 06:10:14;;;;;;;3.57;1.07;;;;;;;1.73;63.88;100268.81;5111244;28;20306;-69
2021/03/07 06:12:42;;;;;;;0.40;0.40;;;;;;;1.69;61.17;100265.44;5107665;28;20288;-68
2021/03/07 06:15:12;;;;;;;0.13;0.13;;;;;;;1.80;62.14;100259.69;5109151;28;20195;-68
2021/03/07 06:17:41;;;;;;;0.37;0.37;;;;;;;1.88;61.28;100249.69;5109561;28;20213;-69
2021/03/07 06:20:12;;;;;;;0.30;0.30;;;;;;;1.99;61.28;100249.25;5109035;28;20233;-68
2021/03/07 06:22:50;;;;;;;0.43;0.40;;;;;;;1.77;60.02;100207.75;5109470;28;20195;-69
2021/03/07 06:25:17;;;;;;;10.33;0.40;;;;;;;2.12;62.13;100237.22;5108693;28;20289;-68
2021/03/07 06:27:44;;;;;;;0.43;0.37;;;;;;;1.66;61.76;100145.63;5111080;28;20333;-69
2021/03/07 06:30:14;;;;;;;0.40;0.40;;;;;;;2.34;59.76;100246.00;5109309;28;20205;-69
2021/03/07 06:32:43;;;;;;;0.30;0.30;;;;;;;2.41;60.86;100236.00;5110699;27;20210;-69
2021/03/07 06:35:12;;;;;;;0.93;0.20;;;;;;;2.34;60.07;100230.09;5107110;27;20218;-69
2021/03/07 06:37:54;;;;;;;1.17;0.30;;;;;;;2.57;60.57;100242.38;5110717;28;20195;-68
2021/03/07 06:40:31;;;;;;;0.10;0.10;;;;;;;2.53;58.90;100224.91;5109756;28;20264;-69
2021/03/07 06:42:59;;;;;;;0.30;0.30;;;;;;;2.69;58.22;100238.31;5106016;27;20191;-68
2021/03/07 06:45:36;;;;;;;0.30;0.30;;;;;;;2.70;56.89;100232.97;5109841;28;20194;-68
2021/03/07 06:48:04;;;;;;;1.30;0.40;;;;;;;2.81;58.79;100237.81;5109844;28;20245;-69
2021/03/07 06:50:32;;;;;;;0.67;0.30;;;;;;;2.95;58.96;100242.47;5110135;28;20192;-69
2021/03/07 06:53:00;;;;;;;0.30;0.30;;;;;;;2.90;57.24;100240.03;5110501;28;20575;-68
2021/03/07 06:55:29;;;;;;;1.80;0.50;;;;;;;2.85;56.68;100242.03;5110638;28;20726;-69
2021/03/07 06:57:56;;;;;;;0.33;0.27;;;;;;;2.67;56.50;100190.69;5109753;28;20202;-69
2021/03/07 07:00:37;;;;;;;0.10;0.10;;;;;;;3.08;56.92;100243.69;5110315;28;20194;-68
2021/03/07 07:03:09;;;;;;;0.30;0.30;;;;;;;3.17;57.18;100243.25;5109242;28;20251;-69
2021/03/07 07:05:40;;;;;;;3.10;0.30;;;;;;;3.10;54.35;100231.19;5111002;28;20670;-68
2021/03/07 07:08:08;;;;;;;1.10;0.20;;;;;;;3.07;51.73;100239.31;5091471;28;20215;-65
2021/03/07 07:11:03;;;;;;;0.83;0.20;;;;;;;3.22;53.52;100249.19;5111630;28;20198;-65
2021/03/07 07:13:32;;;;;;;0.10;0.10;;;;;;;3.20;54.08;100205.09;5075031;28;20230;-66
2021/03/07 07:16:02;;;;;;;0.20;0.20;;;;;;;3.46;53.62;100259.63;5104024;28;20728;-65
2021/03/07 07:18:32;;;;;;;0.30;0.30;;;;;;;3.65;51.46;100273.75;5077342;28;20200;-65
2021/03/07 07:21:03;;;;;;;7.00;0.37;;;;;;;3.41;49.99;100273.97;5109051;28;20194;-65
2021/03/07 07:23:31;;;;;;;0.30;0.30;;;;;;;3.49;51.24;100270.09;5104459;28;20206;-65
2021/03/07 07:25:59;;;;;;;2.33;0.60;;;;;;;3.39;52.55;100235.19;5100787;28;20273;-67
2021/03/07 07:28:27;;;;;;;0.53;0.53;;;;;;;3.53;52.65;100280.50;5084198;28;20349;-65
2021/03/07 07:31:00;;;;;;;0.13;0.13;;;;;;;3.72;53.52;100261.94;5106556;28;20566;-66
2021/03/07 07:33:35;;;;;;;0.60;0.40;;;;;;;3.61;47.62;100261.56;5087303;28;20202;-66
2021/03/07 07:36:08;;;;;;;0.20;0.20;;;;;;;3.63;47.71;100272.97;5110817;28;20198;-66
2021/03/07 07:38:35;;;;;;;0.30;0.30;;;;;;;3.49;46.98;100270.97;5104509;28;20196;-67
2021/03/07 07:41:03;;;;;;;0.30;0.30;;;;;;;3.16;48.19;100230.06;5084322;28;20222;-65
2021/03/07 07:43:54;;;;;;;6.33;0.50;;;;;;;3.45;47.29;100279.13;5102861;28;20581;-65
2021/03/07 07:46:21;;;;;;;0.10;0.10;;;;;;;3.52;48.98;100291.19;5098919;28;20310;-68
2021/03/07 07:48:49;;;;;;;1.60;0.70;;;;;;;3.45;47.20;100269.38;5098280;28;20695;-68
2021/03/07 07:51:34;;;;;;;0.70;0.70;;;;;;;3.07;45.67;100247.25;5097154;28;20212;-68
2021/03/07 07:54:02;;;;;;;0.30;0.30;;;;;;;3.30;46.81;100289.50;5106487;28;20215;-69
2021/03/07 07:56:37;;;;;;;11.60;0.80;;;;;;;3.33;48.06;100305.28;5104892;28;20196;-69
2021/03/07 07:59:06;;;;;;;0.40;0.20;;;;;;;2.98;46.59;100343.97;5100932;28;20238;-68
2021/03/07 08:01:54;;;;;;;0.20;0.20;;;;;;;2.91;47.84;100355.78;5105452;28;20203;-69
2021/03/07 08:04:38;;;;;;;4.97;0.60;;;;;;;2.57;50.54;100351.03;5107379;28;20295;-68
2021/03/07 08:07:10;;;;;;;4.43;0.67;;;;;;;2.33;51.48;100338.78;5102344;28;20230;-65
2021/03/07 08:09:40;;;;;;;2.53;0.33;;;;;;;2.34;50.18;100367.00;5099851;27;20235;-66
2021/03/07 08:12:45;;;;;;;1.23;0.30;;;;;;;2.18;51.57;100351.75;5096496;28;20246;-65
2021/03/07 08:15:45;;;;;;;0.10;0.10;;;;;;;1.97;51.21;100373.75;5108652;27;20286;-66
2021/03/07 08:18:16;;;;;;;0.27;0.27;;;;;;;1.79;51.22;100374.44;5107361;27;20539;-65
2021/03/07 08:21:07;;;;;;;0.30;0.30;;;;;;;1.59;50.97;100371.69;5110847;27;20582;-64
2021/03/07 08:23:58;;;;;;;0.23;0.23;;;;;;;1.60;51.93;100382.22;5108489;27;20285;-65
2021/03/07 08:26:27;;;;;;;1.13;0.30;;;;;;;1.40;48.72;100390.88;5114542;27;20245;-65
2021/03/07 08:28:58;;;;;;;0.20;0.20;;;;;;;1.32;50.48;100387.66;5111847;27;20614;-65
2021/03/07 08:31:36;;;;;;;0.23;0.20;;;;;;;1.36;51.87;100396.34;5093604;27;20214;-64
2021/03/07 08:34:23;;;;;;;3.60;0.50;;;;;;;1.33;50.12;100392.03;5114346;27;20225;-66
2021/03/07 08:37:15;;;;;;;0.10;0.10;;;;;;;1.53;52.84;100399.22;5106154;27;20234;-65
2021/03/07 08:39:43;;;;;;;0.23;0.23;;;;;;;1.65;51.71;100408.50;5104447;27;20221;-68
2021/03/07 08:42:10;;;;;;;0.13;0.13;;;;;;;1.71;53.03;100403.00;5112859;27;21003;-65
2021/03/07 08:44:40;;;;;;;0.30;0.27;;;;;;;1.72;51.98;100404.72;5103047;27;20209;-66
2021/03/07 08:47:07;;;;;;;0.13;0.13;;;;;;;1.77;50.93;100408.91;5104218;27;20198;-65
2021/03/07 08:49:34;;;;;;;0.70;0.20;;;;;;;1.83;51.05;100410.47;5118551;27;20210;-64
2021/03/07 08:52:06;;;;;;;0.30;0.30;;;;;;;1.93;54.01;100418.94;5110071;27;20234;-65
2021/03/07 08:54:34;;;;;;;0.23;0.23;;;;;;;1.72;53.92;100420.59;5106526;27;20288;-65
2021/03/07 08:57:08;;;;;;;0.10;0.10;;;;;;;1.74;51.61;100419.63;5113574;27;20203;-65
2021/03/07 08:59:35;;;;;;;0.20;0.20;;;;;;;1.83;51.88;100419.25;5109216;27;20286;-65
2021/03/07 09:02:04;;;;;;;99.43;49.70;;;;;;;1.71;50.10;100425.03;5109117;27;20208;-65
2021/03/07 09:04:34;;;;;;;4.23;1.33;;;;;;;1.47;49.79;100421.47;5100498;27;20258;-65
2021/03/07 09:07:01;;;;;;;2.80;1.13;;;;;;;1.66;50.20;100423.47;5099268;27;20206;-68
2021/03/07 09:09:28;;;;;;;0.77;0.30;;;;;;;1.64;53.83;100396.19;5102177;27;20241;-68
2021/03/07 09:11:58;;;;;;;0.33;0.33;;;;;;;1.67;51.90;100425.19;5108659;27;20186;-68
2021/03/07 09:14:32;;;;;;;0.20;0.20;;;;;;;1.68;52.86;100414.56;5100623;27;20222;-68
2021/03/07 09:17:01;;;;;;;0.57;0.20;;;;;;;1.92;52.06;100447.19;5102689;28;20199;-68
2021/03/07 09:19:32;;;;;;;0.10;0.10;;;;;;;1.89;51.16;100449.97;5103872;27;20503;-69
2021/03/07 09:22:18;;;;;;;0.60;0.30;;;;;;;1.75;51.11;100453.09;5112460;27;20204;-68
2021/03/07 09:24:54;;;;;;;0.77;0.47;;;;;;;1.73;53.60;100432.91;5098831;27;20214;-68
2021/03/07 09:27:22;;;;;;;0.30;0.30;;;;;;;1.69;49.54;100439.22;5104813;27;20230;-68
2021/03/07 09:29:55;;;;;;;0.20;0.17;;;;;;;1.48;47.57;100441.72;5107184;27;20307;-68
2021/03/07 09:32:27;;;;;;;1.50;0.40;;;;;;;1.50;48.77;100444.31;5104182;27;20214;-69
2021/03/07 09:34:55;;;;;;;1.03;0.40;;;;;;;1.51;49.11;100453.97;5105162;27;20203;-68
2021/03/07 09:37:23;;;;;;;0.10;0.10;;;;;;;1.53;49.43;100452.13;5103497;27;20238;-68
2021/03/07 09:39:51;;;;;;;0.20;0.20;;;;;;;1.33;49.17;100407.03;5103024;27;20248;-68
2021/03/07 09:42:19;;;;;;;0.30;0.30;;;;;;;1.39;47.95;100414.75;5106142;27;20264;-68
2021/03/07 09:44:46;;;;;;;0.20;0.20;;;;;;;1.71;50.93;100462.06;5105919;27;20202;-69
2021/03/07 09:47:16;;;;;;;0.30;0.30;;;;;;;1.69;47.66;100453.34;5103313;28;20678;-69
2021/03/07 09:49:46;;;;;;;0.13;0.10;;;;;;;1.83;50.51;100452.81;5104936;27;20312;-69
2021/03/07 09:52:14;;;;;;;1.57;0.73;;;;;;;1.93;48.96;100462.16;5084204;28;20638;-68
2021/03/07 09:54:57;;;;;;;0.10;0.10;;;;;;;1.96;49.06;100464.69;5103601;28;20245;-69
2021/03/07 09:57:41;;;;;;;0.13;0.13;;;;;;;1.84;48.90;100457.22;5103554;28;20201;-68
2021/03/07 10:00:09;;;;;;;0.17;0.17;;;;;;;1.89;49.70;100455.25;5084338;28;20206;-69
2021/03/07 10:02:41;;;;;;;0.43;0.20;;;;;;;2.02;51.71;100464.47;5103475;27;20197;-70
2021/03/07 10:05:14;;;;;;;0.60;0.20;;;;;;;2.05;49.97;100460.84;5103511;27;20199;-69
2021/03/07 10:07:41;;;;;;;0.20;0.20;;;;;;;1.96;51.05;100463.84;5108857;28;20696;-69
2021/03/07 10:10:13;;;;;;;0.50;0.23;;;;;;;1.98;52.32;100470.78;5109708;27;20221;-69
2021/03/07 10:12:47;;;;;;;0.30;0.30;;;;;;;1.95;46.81;100473.56;5111328;27;20231;-68
2021/03/07 10:15:24;;;;;;;0.17;0.17;;;;;;;1.89;45.05;100471.16;5109467;28;20206;-68
2021/03/07 10:17:53;;;;;;;3.93;0.50;;;;;;;1.78;49.43;100458.28;5106424;27;20565;-68
2021/03/07 10:20:21;;;;;;;0.20;0.20;;;;;;;1.93;47.52;100486.00;5108486;28;20689;-69
2021/03/07 10:22:50;;;;;;;3.30;0.53;;;;;;;1.67;43.29;100457.81;5109763;27;20194;-69
2021/03/07 10:25:26;;;;;;;0.20;0.20;;;;;;;1.82;45.08;100488.16;5109703;27;20766;-69
2021/03/07 10:27:55;;;;;;;0.20;0.20;;;;;;;1.81;45.19;100504.94;5109266;28;20301;-69
2021/03/07 10:30:34;;;;;;;0.50;0.30;;;;;;;1.92;48.62;100494.84;5110894;27;20367;-69
2021/03/07 10:33:13;;;;;;;0.20;0.20;;;;;;;1.83;46.00;100503.97;5106988;27;20286;-68
2021/03/07 10:35:58;;;;;;;0.20;0.20;;;;;;;1.92;46.87;100513.38;5108100;28;20595;-69
2021/03/07 10:38:25;;;;;;;0.97;0.70;;;;;;;2.06;49.48;100515.53;5108171;27;20203;-69
2021/03/07 10:40:53;;;;;;;0.73;0.40;;;;;;;2.02;47.41;100527.16;5108638;28;20622;-70
2021/03/07 10:43:22;;;;;;;1.30;0.73;;;;;;;1.93;47.45;100503.66;5124281;27;20207;-69
2021/03/07 10:45:50;;;;;;;0.20;0.20;;;;;;;2.13;46.96;100523.19;5109312;28;21933;-70
2021/03/07 10:48:18;;;;;;;0.57;0.40;;;;;;;2.15;47.44;100531.97;5107334;27;20198;-69
2021/03/07 10:50:48;;;;;;;0.10;0.10;;;;;;;2.16;42.85;100544.28;5106167;27;20212;-69
2021/03/07 10:53:19;;;;;;;0.20;0.20;;;;;;;2.14;47.93;100522.28;5107216;27;20224;-68
2021/03/07 10:55:50;;;;;;;0.03;0.03;;;;;;;2.11;43.55;100527.66;5088806;28;20207;-69
2021/03/07 10:58:20;;;;;;;0.37;0.17;;;;;;;2.09;44.65;100540.09;5106497;28;20208;-69
2021/03/07 11:00:47;;;;;;;0.10;0.10;;;;;;;2.06;42.71;100540.22;5113036;27;20198;-69
2021/03/07 11:03:15;;;;;;;0.20;0.20;;;;;;;2.05;41.21;100546.44;5103132;28;20206;-69
2021/03/07 11:05:44;;;;;;;0.33;0.23;;;;;;;2.03;45.89;100528.88;5104868;27;20575;-69
2021/03/07 11:08:11;;;;;;;0.20;0.20;;;;;;;2.09;43.72;100536.59;5104404;28;20215;-69
2021/03/07 11:10:38;;;;;;;0.10;0.10;;;;;;;2.26;45.80;100551.88;5107644;28;20226;-69
2021/03/07 11:13:05;;;;;;;0.20;0.20;;;;;;;2.23;43.89;100544.91;5107310;27;20278;-69
2021/03/07 11:15:33;;;;;;;205.13;81.73;;;;;;;2.44;48.38;100556.47;5109050;27;20213;-69
2021/03/07 11:18:00;;;;;;;3.53;2.03;;;;;;;2.35;43.68;100549.75;5103550;27;20199;-69
2021/03/07 11:20:27;;;;;;;3.07;2.03;;;;;;;2.38;45.48;100539.03;5106828;27;20187;-69
2021/03/07 11:22:55;;;;;;;3.23;0.73;;;;;;;2.55;45.83;100546.34;5103534;28;20203;-68
2021/03/07 11:25:23;;;;;;;0.30;0.30;;;;;;;2.36;41.41;100554.13;5109085;28;20675;-68
2021/03/07 11:27:50;;;;;;;0.23;0.23;;;;;;;2.60;45.12;100570.03;5101733;28;20241;-68
2021/03/07 11:30:18;;;;;;;0.40;0.20;;;;;;;2.77;45.06;100562.31;5103106;28;20655;-69
2021/03/07 11:32:45;;;;;;;0.33;0.30;;;;;;;2.79;45.22;100561.34;5104194;28;20630;-69
2021/03/07 11:35:13;;;;;;;0.20;0.20;;;;;;;2.87;44.06;100573.41;5105244;28;21344;-70
2021/03/07 11:37:40;;;;;;;1.40;0.40;;;;;;;2.80;41.36;100567.50;5104313;28;20203;-70
2021/03/07 11:40:10;;;;;;;1.03;0.70;;;;;;;2.89;43.16;100566.25;5109592;28;20277;-69
2021/03/07 11:42:37;;;;;;;9.83;6.67;;;;;;;3.04;44.84;100570.94;5109833;28;20198;-66
2021/03/07 11:45:06;;;;;;;0.40;0.40;;;;;;;3.17;42.77;100568.69;5113506;27;20317;-66
2021/03/07 11:47:33;;;;;;;0.10;0.10;;;;;;;3.18;44.64;100570.41;5111123;27;20210;-66